sensor_id;sensor_type;location;lat;lon;timestamp;temperature;humidity
59975;DHT22;62136;-35.664;-63.766;2023-02-15T00:01:59;30.70;30.20
59975;DHT22;62136;-35.664;-63.766;2023-02-15T00:04:27;30.70;30.20
59975;DHT22;62136;-35.664;-63.766;2023-02-15T00:07:16;30.70;30.30
59975;DHT22;62136;-35.664;-63.766;2023-02-15T00:09:46;30.60;30.20
59975;DHT22;62136;-35.664;-63.766;2023-02-15T00:12:14;30.70;30.20
59975;DHT22;62136;-35.664;-63.766;2023-02-15T00:14:41;30.60;30.20
59975;DHT22;62136;-35.664;-63.766;2023-02-15T00:17:08;30.60;30.20
59975;DHT22;62136;-35.664;-63.766;2023-02-15T00:19:35;30.60;30.30
59975;DHT22;62136;-35.664;-63.766;2023-02-15T00:22:03;30.50;30.20
59975;DHT22;62136;-35.664;-63.766;2023-02-15T00:24:30;30.50;30.30
59975;DHT22;62136;-35.664;-63.766;2023-02-15T00:26:57;30.50;30.30
59975;DHT22;62136;-35.664;-63.766;2023-02-15T00:29:24;30.50;30.30
59975;DHT22;62136;-35.664;-63.766;2023-02-15T00:31:51;30.50;30.40
59975;DHT22;62136;-35.664;-63.766;2023-02-15T00:34:24;30.40;30.30
59975;DHT22;62136;-35.664;-63.766;2023-02-15T00:36:52;30.50;30.50
59975;DHT22;62136;-35.664;-63.766;2023-02-15T00:39:19;30.40;30.40
59975;DHT22;62136;-35.664;-63.766;2023-02-15T00:41:47;30.40;30.40
59975;DHT22;62136;-35.664;-63.766;2023-02-15T00:44:14;30.40;30.40
59975;DHT22;62136;-35.664;-63.766;2023-02-15T00:46:42;30.40;30.40
59975;DHT22;62136;-35.664;-63.766;2023-02-15T00:49:09;30.40;30.50
59975;DHT22;62136;-35.664;-63.766;2023-02-15T00:51:36;30.30;30.40
59975;DHT22;62136;-35.664;-63.766;2023-02-15T00:54:04;30.40;30.50
59975;DHT22;62136;-35.664;-63.766;2023-02-15T00:56:31;30.40;30.60
59975;DHT22;62136;-35.664;-63.766;2023-02-15T00:59:01;30.30;30.60
59975;DHT22;62136;-35.664;-63.766;2023-02-15T01:01:28;30.30;30.60
59975;DHT22;62136;-35.664;-63.766;2023-02-15T01:03:55;30.30;30.60
59975;DHT22;62136;-35.664;-63.766;2023-02-15T01:06:22;30.20;30.50
59975;DHT22;62136;-35.664;-63.766;2023-02-15T01:08:49;30.30;30.80
59975;DHT22;62136;-35.664;-63.766;2023-02-15T01:11:20;30.30;30.70
59975;DHT22;62136;-35.664;-63.766;2023-02-15T01:13:50;30.20;30.70
59975;DHT22;62136;-35.664;-63.766;2023-02-15T01:16:17;30.20;30.80
59975;DHT22;62136;-35.664;-63.766;2023-02-15T01:18:44;30.20;30.70
59975;DHT22;62136;-35.664;-63.766;2023-02-15T01:21:14;30.20;30.70
59975;DHT22;62136;-35.664;-63.766;2023-02-15T01:23:42;30.10;30.80
59975;DHT22;62136;-35.664;-63.766;2023-02-15T01:26:10;30.10;30.80
59975;DHT22;62136;-35.664;-63.766;2023-02-15T01:28:38;30.10;30.90
59975;DHT22;62136;-35.664;-63.766;2023-02-15T01:31:10;30.10;30.90
59975;DHT22;62136;-35.664;-63.766;2023-02-15T01:33:39;30.10;30.90
59975;DHT22;62136;-35.664;-63.766;2023-02-15T01:36:07;30.10;30.90
59975;DHT22;62136;-35.664;-63.766;2023-02-15T01:38:35;30.10;30.90
59975;DHT22;62136;-35.664;-63.766;2023-02-15T01:41:02;30.00;31.00
59975;DHT22;62136;-35.664;-63.766;2023-02-15T01:43:59;30.00;30.90
59975;DHT22;62136;-35.664;-63.766;2023-02-15T01:46:40;30.00;31.00
59975;DHT22;62136;-35.664;-63.766;2023-02-15T01:49:19;30.00;31.10
59975;DHT22;62136;-35.664;-63.766;2023-02-15T01:51:49;29.90;31.00
59975;DHT22;62136;-35.664;-63.766;2023-02-15T01:54:32;29.90;31.10
59975;DHT22;62136;-35.664;-63.766;2023-02-15T01:57:09;29.90;31.20
59975;DHT22;62136;-35.664;-63.766;2023-02-15T01:59:38;29.90;31.20
59975;DHT22;62136;-35.664;-63.766;2023-02-15T02:02:08;29.90;31.30
59975;DHT22;62136;-35.664;-63.766;2023-02-15T02:04:50;29.80;31.10
59975;DHT22;62136;-35.664;-63.766;2023-02-15T02:07:21;29.80;31.20
59975;DHT22;62136;-35.664;-63.766;2023-02-15T02:09:49;29.80;31.40
59975;DHT22;62136;-35.664;-63.766;2023-02-15T02:12:20;29.80;31.30
59975;DHT22;62136;-35.664;-63.766;2023-02-15T02:14:49;29.70;31.20
59975;DHT22;62136;-35.664;-63.766;2023-02-15T02:20:36;29.70;31.40
59975;DHT22;62136;-35.664;-63.766;2023-02-15T02:23:47;29.70;31.30
59975;DHT22;62136;-35.664;-63.766;2023-02-15T02:35:11;29.60;31.30
59975;DHT22;62136;-35.664;-63.766;2023-02-15T02:40:56;29.60;31.90
59975;DHT22;62136;-35.664;-63.766;2023-02-15T02:43:59;29.60;31.50
59975;DHT22;62136;-35.664;-63.766;2023-02-15T02:49:39;29.50;31.50
59975;DHT22;62136;-35.664;-63.766;2023-02-15T02:55:40;29.50;31.60
59975;DHT22;62136;-35.664;-63.766;2023-02-15T03:01:13;29.40;31.50
59975;DHT22;62136;-35.664;-63.766;2023-02-15T03:03:51;29.40;31.50
59975;DHT22;62136;-35.664;-63.766;2023-02-15T03:06:30;29.40;31.60
59975;DHT22;62136;-35.664;-63.766;2023-02-15T03:09:08;29.40;31.70
59975;DHT22;62136;-35.664;-63.766;2023-02-15T03:11:45;29.40;31.70
59975;DHT22;62136;-35.664;-63.766;2023-02-15T03:14:14;29.40;31.80
59975;DHT22;62136;-35.664;-63.766;2023-02-15T03:16:47;29.40;31.80
59975;DHT22;62136;-35.664;-63.766;2023-02-15T03:19:20;29.40;31.70
59975;DHT22;62136;-35.664;-63.766;2023-02-15T03:21:55;29.30;31.70
59975;DHT22;62136;-35.664;-63.766;2023-02-15T03:27:48;29.30;31.70
59975;DHT22;62136;-35.664;-63.766;2023-02-15T03:30:13;29.30;31.70
59975;DHT22;62136;-35.664;-63.766;2023-02-15T03:32:42;29.30;31.90
59975;DHT22;62136;-35.664;-63.766;2023-02-15T03:35:10;29.30;31.90
59975;DHT22;62136;-35.664;-63.766;2023-02-15T03:37:48;29.30;31.90
59975;DHT22;62136;-35.664;-63.766;2023-02-15T03:46:05;29.30;31.90
59975;DHT22;62136;-35.664;-63.766;2023-02-15T03:48:58;29.20;31.80
59975;DHT22;62136;-35.664;-63.766;2023-02-15T03:51:33;29.20;32.00
59975;DHT22;62136;-35.664;-63.766;2023-02-15T03:57:21;29.20;32.00
59975;DHT22;62136;-35.664;-63.766;2023-02-15T04:00:17;29.10;31.90
59975;DHT22;62136;-35.664;-63.766;2023-02-15T04:05:43;29.10;31.90
59975;DHT22;62136;-35.664;-63.766;2023-02-15T04:08:11;29.10;32.40
59975;DHT22;62136;-35.664;-63.766;2023-02-15T04:10:38;29.10;32.10
59975;DHT22;62136;-35.664;-63.766;2023-02-15T04:13:30;29.10;32.00
59975;DHT22;62136;-35.664;-63.766;2023-02-15T04:15:57;29.00;32.00
59975;DHT22;62136;-35.664;-63.766;2023-02-15T04:18:35;29.00;32.10
59975;DHT22;62136;-35.664;-63.766;2023-02-15T04:21:22;29.00;32.20
59975;DHT22;62136;-35.664;-63.766;2023-02-15T04:24:07;29.00;32.20
59975;DHT22;62136;-35.664;-63.766;2023-02-15T04:26:52;29.00;32.20
59975;DHT22;62136;-35.664;-63.766;2023-02-15T04:29:23;29.00;32.30
59975;DHT22;62136;-35.664;-63.766;2023-02-15T04:31:52;29.00;32.30
59975;DHT22;62136;-35.664;-63.766;2023-02-15T04:34:19;28.90;32.10
59975;DHT22;62136;-35.664;-63.766;2023-02-15T04:36:46;28.90;32.20
59975;DHT22;62136;-35.664;-63.766;2023-02-15T04:39:14;28.90;32.30
59975;DHT22;62136;-35.664;-63.766;2023-02-15T04:41:42;28.90;32.30
59975;DHT22;62136;-35.664;-63.766;2023-02-15T04:44:09;28.90;32.40
59975;DHT22;62136;-35.664;-63.766;2023-02-15T04:46:37;28.90;32.40
59975;DHT22;62136;-35.664;-63.766;2023-02-15T04:49:04;28.90;32.40
59975;DHT22;62136;-35.664;-63.766;2023-02-15T04:51:31;28.90;32.40
59975;DHT22;62136;-35.664;-63.766;2023-02-15T04:53:58;28.90;32.50
59975;DHT22;62136;-35.664;-63.766;2023-02-15T04:56:25;28.90;32.40
59975;DHT22;62136;-35.664;-63.766;2023-02-15T04:58:52;28.90;32.40
59975;DHT22;62136;-35.664;-63.766;2023-02-15T05:01:19;28.90;32.50
59975;DHT22;62136;-35.664;-63.766;2023-02-15T05:03:46;28.80;32.40
59975;DHT22;62136;-35.664;-63.766;2023-02-15T05:06:13;28.90;32.50
59975;DHT22;62136;-35.664;-63.766;2023-02-15T05:08:40;28.80;32.40
59975;DHT22;62136;-35.664;-63.766;2023-02-15T05:11:07;28.80;32.50
59975;DHT22;62136;-35.664;-63.766;2023-02-15T05:13:34;28.80;32.50
59975;DHT22;62136;-35.664;-63.766;2023-02-15T05:16:01;28.80;32.60
59975;DHT22;62136;-35.664;-63.766;2023-02-15T05:18:28;28.80;32.50
59975;DHT22;62136;-35.664;-63.766;2023-02-15T05:20:55;28.80;32.30
59975;DHT22;62136;-35.664;-63.766;2023-02-15T05:23:22;28.80;32.60
59975;DHT22;62136;-35.664;-63.766;2023-02-15T05:25:50;28.80;32.70
59975;DHT22;62136;-35.664;-63.766;2023-02-15T05:28:36;28.70;32.50
59975;DHT22;62136;-35.664;-63.766;2023-02-15T05:31:07;28.70;32.70
59975;DHT22;62136;-35.664;-63.766;2023-02-15T05:33:35;28.70;32.80
59975;DHT22;62136;-35.664;-63.766;2023-02-15T05:36:02;28.70;32.70
59975;DHT22;62136;-35.664;-63.766;2023-02-15T05:38:29;28.70;32.70
59975;DHT22;62136;-35.664;-63.766;2023-02-15T05:40:57;28.60;32.80
59975;DHT22;62136;-35.664;-63.766;2023-02-15T05:45:55;28.60;32.80
59975;DHT22;62136;-35.664;-63.766;2023-02-15T05:48:24;28.60;32.80
59975;DHT22;62136;-35.664;-63.766;2023-02-15T05:51:02;28.60;32.90
59975;DHT22;62136;-35.664;-63.766;2023-02-15T05:53:32;28.60;32.90
59975;DHT22;62136;-35.664;-63.766;2023-02-15T05:56:00;28.60;32.90
59975;DHT22;62136;-35.664;-63.766;2023-02-15T05:58:34;28.60;32.80
59975;DHT22;62136;-35.664;-63.766;2023-02-15T06:01:15;28.60;33.00
59975;DHT22;62136;-35.664;-63.766;2023-02-15T06:03:44;28.60;32.80
59975;DHT22;62136;-35.664;-63.766;2023-02-15T06:06:11;28.50;33.00
59975;DHT22;62136;-35.664;-63.766;2023-02-15T06:08:38;28.50;32.70
59975;DHT22;62136;-35.664;-63.766;2023-02-15T06:11:06;28.50;33.10
59975;DHT22;62136;-35.664;-63.766;2023-02-15T06:13:33;28.50;33.10
59975;DHT22;62136;-35.664;-63.766;2023-02-15T06:16:01;28.50;33.10
59975;DHT22;62136;-35.664;-63.766;2023-02-15T06:18:28;28.40;33.10
59975;DHT22;62136;-35.664;-63.766;2023-02-15T06:20:55;28.40;33.20
59975;DHT22;62136;-35.664;-63.766;2023-02-15T06:23:22;28.40;33.10
59975;DHT22;62136;-35.664;-63.766;2023-02-15T06:25:49;28.40;33.20
59975;DHT22;62136;-35.664;-63.766;2023-02-15T06:28:16;28.40;33.20
59975;DHT22;62136;-35.664;-63.766;2023-02-15T06:30:43;28.40;33.30
59975;DHT22;62136;-35.664;-63.766;2023-02-15T06:33:10;28.40;33.30
59975;DHT22;62136;-35.664;-63.766;2023-02-15T06:35:37;28.30;33.20
59975;DHT22;62136;-35.664;-63.766;2023-02-15T06:38:04;28.30;33.20
59975;DHT22;62136;-35.664;-63.766;2023-02-15T06:40:31;28.30;33.20
59975;DHT22;62136;-35.664;-63.766;2023-02-15T06:42:58;28.20;33.10
59975;DHT22;62136;-35.664;-63.766;2023-02-15T06:45:25;28.30;33.20
59975;DHT22;62136;-35.664;-63.766;2023-02-15T06:47:52;28.20;33.30
59975;DHT22;62136;-35.664;-63.766;2023-02-15T06:50:19;28.20;33.20
59975;DHT22;62136;-35.664;-63.766;2023-02-15T06:52:46;28.20;33.40
59975;DHT22;62136;-35.664;-63.766;2023-02-15T06:55:13;28.20;33.10
59975;DHT22;62136;-35.664;-63.766;2023-02-15T06:57:40;28.20;33.10
59975;DHT22;62136;-35.664;-63.766;2023-02-15T07:00:08;28.10;33.50
59975;DHT22;62136;-35.664;-63.766;2023-02-15T07:02:35;28.10;33.40
59975;DHT22;62136;-35.664;-63.766;2023-02-15T07:05:02;28.10;33.50
59975;DHT22;62136;-35.664;-63.766;2023-02-15T07:07:31;28.10;33.20
59975;DHT22;62136;-35.664;-63.766;2023-02-15T07:09:58;28.10;33.30
59975;DHT22;62136;-35.664;-63.766;2023-02-15T07:12:25;28.10;33.60
59975;DHT22;62136;-35.664;-63.766;2023-02-15T07:15:17;28.00;33.50
59975;DHT22;62136;-35.664;-63.766;2023-02-15T07:17:44;28.00;33.60
59975;DHT22;62136;-35.664;-63.766;2023-02-15T07:20:14;28.00;33.70
59975;DHT22;62136;-35.664;-63.766;2023-02-15T07:22:42;28.00;33.60
59975;DHT22;62136;-35.664;-63.766;2023-02-15T07:25:11;27.90;33.60
59975;DHT22;62136;-35.664;-63.766;2023-02-15T07:27:38;27.90;33.70
59975;DHT22;62136;-35.664;-63.766;2023-02-15T07:30:08;27.90;33.70
59975;DHT22;62136;-35.664;-63.766;2023-02-15T07:32:35;27.90;33.80
59975;DHT22;62136;-35.664;-63.766;2023-02-15T07:35:02;27.90;33.90
59975;DHT22;62136;-35.664;-63.766;2023-02-15T07:37:29;27.90;33.50
59975;DHT22;62136;-35.664;-63.766;2023-02-15T07:39:56;27.80;33.80
59975;DHT22;62136;-35.664;-63.766;2023-02-15T07:42:23;27.80;33.90
59975;DHT22;62136;-35.664;-63.766;2023-02-15T07:44:50;27.80;34.00
59975;DHT22;62136;-35.664;-63.766;2023-02-15T07:47:18;27.80;33.90
59975;DHT22;62136;-35.664;-63.766;2023-02-15T07:49:45;27.80;34.10
59975;DHT22;62136;-35.664;-63.766;2023-02-15T07:52:15;27.70;34.00
59975;DHT22;62136;-35.664;-63.766;2023-02-15T07:54:42;27.70;34.00
59975;DHT22;62136;-35.664;-63.766;2023-02-15T07:57:09;27.70;34.10
59975;DHT22;62136;-35.664;-63.766;2023-02-15T07:59:36;27.70;34.10
59975;DHT22;62136;-35.664;-63.766;2023-02-15T08:02:05;27.70;34.20
59975;DHT22;62136;-35.664;-63.766;2023-02-15T08:04:32;27.70;34.20
59975;DHT22;62136;-35.664;-63.766;2023-02-15T08:06:59;27.60;34.20
59975;DHT22;62136;-35.664;-63.766;2023-02-15T08:09:26;27.60;34.20
59975;DHT22;62136;-35.664;-63.766;2023-02-15T08:11:56;27.60;34.30
59975;DHT22;62136;-35.664;-63.766;2023-02-15T08:16:54;27.60;34.30
59975;DHT22;62136;-35.664;-63.766;2023-02-15T08:19:26;27.50;34.30
59975;DHT22;62136;-35.664;-63.766;2023-02-15T08:22:15;27.50;34.40
59975;DHT22;62136;-35.664;-63.766;2023-02-15T08:24:41;27.50;34.40
59975;DHT22;62136;-35.664;-63.766;2023-02-15T08:27:10;27.50;34.50
59975;DHT22;62136;-35.664;-63.766;2023-02-15T08:29:38;27.50;34.50
59975;DHT22;62136;-35.664;-63.766;2023-02-15T08:32:07;27.40;34.50
59975;DHT22;62136;-35.664;-63.766;2023-02-15T08:34:38;27.50;34.60
59975;DHT22;62136;-35.664;-63.766;2023-02-15T08:37:06;27.40;34.60
59975;DHT22;62136;-35.664;-63.766;2023-02-15T08:39:34;27.40;34.20
59975;DHT22;62136;-35.664;-63.766;2023-02-15T08:42:01;27.30;34.60
59975;DHT22;62136;-35.664;-63.766;2023-02-15T08:44:28;27.40;34.60
59975;DHT22;62136;-35.664;-63.766;2023-02-15T08:46:55;27.30;34.70
59975;DHT22;62136;-35.664;-63.766;2023-02-15T08:49:28;27.40;34.70
59975;DHT22;62136;-35.664;-63.766;2023-02-15T08:51:55;27.30;34.80
59975;DHT22;62136;-35.664;-63.766;2023-02-15T08:54:22;27.30;34.60
59975;DHT22;62136;-35.664;-63.766;2023-02-15T08:56:49;27.30;34.80
59975;DHT22;62136;-35.664;-63.766;2023-02-15T08:59:25;27.30;34.90
59975;DHT22;62136;-35.664;-63.766;2023-02-15T09:01:54;27.20;34.80
59975;DHT22;62136;-35.664;-63.766;2023-02-15T09:04:21;27.20;34.80
59975;DHT22;62136;-35.664;-63.766;2023-02-15T09:06:49;27.20;35.00
59975;DHT22;62136;-35.664;-63.766;2023-02-15T09:09:18;27.20;35.00
59975;DHT22;62136;-35.664;-63.766;2023-02-15T09:11:47;27.20;35.00
59975;DHT22;62136;-35.664;-63.766;2023-02-15T09:14:18;27.20;35.00
59975;DHT22;62136;-35.664;-63.766;2023-02-15T09:16:52;27.20;35.00
59975;DHT22;62136;-35.664;-63.766;2023-02-15T09:19:21;27.10;34.90
59975;DHT22;62136;-35.664;-63.766;2023-02-15T09:21:49;27.10;35.10
59975;DHT22;62136;-35.664;-63.766;2023-02-15T09:24:17;27.10;35.10
59975;DHT22;62136;-35.664;-63.766;2023-02-15T09:26:46;27.10;35.10
59975;DHT22;62136;-35.664;-63.766;2023-02-15T09:29:14;27.10;35.30
59975;DHT22;62136;-35.664;-63.766;2023-02-15T09:31:45;27.10;35.30
59975;DHT22;62136;-35.664;-63.766;2023-02-15T09:34:14;27.10;35.30
59975;DHT22;62136;-35.664;-63.766;2023-02-15T09:36:45;27.00;35.30
59975;DHT22;62136;-35.664;-63.766;2023-02-15T09:39:18;27.00;35.30
59975;DHT22;62136;-35.664;-63.766;2023-02-15T09:44:58;27.00;35.20
59975;DHT22;62136;-35.664;-63.766;2023-02-15T09:47:31;27.00;35.40
59975;DHT22;62136;-35.664;-63.766;2023-02-15T09:50:25;26.90;35.40
59975;DHT22;62136;-35.664;-63.766;2023-02-15T10:01:25;26.80;35.60
59975;DHT22;62136;-35.664;-63.766;2023-02-15T10:18:07;26.50;35.90
59975;DHT22;62136;-35.664;-63.766;2023-02-15T10:21:19;26.50;35.90
59975;DHT22;62136;-35.664;-63.766;2023-02-15T10:27:12;26.30;36.20
59975;DHT22;62136;-35.664;-63.766;2023-02-15T10:30:16;26.30;36.20
59975;DHT22;62136;-35.664;-63.766;2023-02-15T10:33:06;26.20;36.30
59975;DHT22;62136;-35.664;-63.766;2023-02-15T10:39:21;26.10;36.40
59975;DHT22;62136;-35.664;-63.766;2023-02-15T10:42:04;26.20;36.40
59975;DHT22;62136;-35.664;-63.766;2023-02-15T10:44:46;26.10;36.20
59975;DHT22;62136;-35.664;-63.766;2023-02-15T10:47:49;26.20;36.50
59975;DHT22;62136;-35.664;-63.766;2023-02-15T10:57:04;26.20;36.40
59975;DHT22;62136;-35.664;-63.766;2023-02-15T11:00:03;26.20;36.50
59975;DHT22;62136;-35.664;-63.766;2023-02-15T11:08:07;26.10;36.70
59975;DHT22;62136;-35.664;-63.766;2023-02-15T11:13:20;26.10;36.90
59975;DHT22;62136;-35.664;-63.766;2023-02-15T11:18:37;26.10;36.90
59975;DHT22;62136;-35.664;-63.766;2023-02-15T11:23:59;26.10;36.90
59975;DHT22;62136;-35.664;-63.766;2023-02-15T11:26:37;26.10;36.90
59975;DHT22;62136;-35.664;-63.766;2023-02-15T11:35:26;26.10;36.80
59975;DHT22;62136;-35.664;-63.766;2023-02-15T11:38:21;26.10;36.90
59975;DHT22;62136;-35.664;-63.766;2023-02-15T11:41:01;26.20;37.00
59975;DHT22;62136;-35.664;-63.766;2023-02-15T11:44:00;26.20;36.90
59975;DHT22;62136;-35.664;-63.766;2023-02-15T11:48:59;26.20;36.90
59975;DHT22;62136;-35.664;-63.766;2023-02-15T11:51:28;26.20;36.90
59975;DHT22;62136;-35.664;-63.766;2023-02-15T11:53:56;26.20;36.90
59975;DHT22;62136;-35.664;-63.766;2023-02-15T11:56:30;26.30;36.80
59975;DHT22;62136;-35.664;-63.766;2023-02-15T11:59:04;26.30;36.90
59975;DHT22;62136;-35.664;-63.766;2023-02-15T12:01:58;26.30;36.80
59975;DHT22;62136;-35.664;-63.766;2023-02-15T12:04:35;26.30;36.80
59975;DHT22;62136;-35.664;-63.766;2023-02-15T12:07:25;26.30;36.80
59975;DHT22;62136;-35.664;-63.766;2023-02-15T12:10:04;26.40;36.80
59975;DHT22;62136;-35.664;-63.766;2023-02-15T12:12:37;26.40;36.80
59975;DHT22;62136;-35.664;-63.766;2023-02-15T12:15:07;26.40;36.80
59975;DHT22;62136;-35.664;-63.766;2023-02-15T12:17:48;26.40;36.80
59975;DHT22;62136;-35.664;-63.766;2023-02-15T12:23:02;26.50;36.90
59975;DHT22;62136;-35.664;-63.766;2023-02-15T12:25:50;26.50;37.00
59975;DHT22;62136;-35.664;-63.766;2023-02-15T12:30:52;26.50;37.00
59975;DHT22;62136;-35.664;-63.766;2023-02-15T12:33:39;26.50;37.00
59975;DHT22;62136;-35.664;-63.766;2023-02-15T12:36:17;26.60;37.00
59975;DHT22;62136;-35.664;-63.766;2023-02-15T12:42:04;26.60;36.90
59975;DHT22;62136;-35.664;-63.766;2023-02-15T12:44:34;26.60;36.90
59975;DHT22;62136;-35.664;-63.766;2023-02-15T12:47:20;26.70;37.00
59975;DHT22;62136;-35.664;-63.766;2023-02-15T12:50:13;26.70;36.90
59975;DHT22;62136;-35.664;-63.766;2023-02-15T12:52:47;26.70;36.90
59975;DHT22;62136;-35.664;-63.766;2023-02-15T12:55:26;26.70;36.80
59975;DHT22;62136;-35.664;-63.766;2023-02-15T12:58:32;26.80;36.80
59975;DHT22;62136;-35.664;-63.766;2023-02-15T13:01:12;26.80;36.70
59975;DHT22;62136;-35.664;-63.766;2023-02-15T13:04:06;26.90;36.80
59975;DHT22;62136;-35.664;-63.766;2023-02-15T13:06:48;26.90;36.60
59975;DHT22;62136;-35.664;-63.766;2023-02-15T13:12:20;27.00;36.50
59975;DHT22;62136;-35.664;-63.766;2023-02-15T13:14:49;27.00;36.50
59975;DHT22;62136;-35.664;-63.766;2023-02-15T13:17:21;27.00;37.00
59975;DHT22;62136;-35.664;-63.766;2023-02-15T13:19:52;27.10;36.30
59975;DHT22;62136;-35.664;-63.766;2023-02-15T13:22:37;27.10;36.40
59975;DHT22;62136;-35.664;-63.766;2023-02-15T13:25:18;27.10;36.30
59975;DHT22;62136;-35.664;-63.766;2023-02-15T13:27:51;27.20;36.40
59975;DHT22;62136;-35.664;-63.766;2023-02-15T13:30:30;27.20;36.40
59975;DHT22;62136;-35.664;-63.766;2023-02-15T13:33:17;27.20;36.30
59975;DHT22;62136;-35.664;-63.766;2023-02-15T13:36:05;27.30;36.30
59975;DHT22;62136;-35.664;-63.766;2023-02-15T13:41:18;27.30;36.30
59975;DHT22;62136;-35.664;-63.766;2023-02-15T13:44:03;27.40;36.20
59975;DHT22;62136;-35.664;-63.766;2023-02-15T13:46:41;27.40;36.10
59975;DHT22;62136;-35.664;-63.766;2023-02-15T13:49:22;27.40;36.10
59975;DHT22;62136;-35.664;-63.766;2023-02-15T13:52:00;27.50;36.10
59975;DHT22;62136;-35.664;-63.766;2023-02-15T14:21:38;27.90;35.30
59975;DHT22;62136;-35.664;-63.766;2023-02-15T14:30:02;28.00;35.00
59975;DHT22;62136;-35.664;-63.766;2023-02-15T14:32:38;28.00;34.90
59975;DHT22;62136;-35.664;-63.766;2023-02-15T14:35:17;28.00;34.80
59975;DHT22;62136;-35.664;-63.766;2023-02-15T14:46:39;28.20;34.90
59975;DHT22;62136;-35.664;-63.766;2023-02-15T14:49:21;28.20;34.60
59975;DHT22;62136;-35.664;-63.766;2023-02-15T15:03:01;28.40;34.40
59975;DHT22;62136;-35.664;-63.766;2023-02-15T15:05:26;28.50;34.50
59975;DHT22;62136;-35.664;-63.766;2023-02-15T15:07:58;28.50;34.40
59975;DHT22;62136;-35.664;-63.766;2023-02-15T15:12:57;28.60;34.20
59975;DHT22;62136;-35.664;-63.766;2023-02-15T15:18:10;28.70;34.10
59975;DHT22;62136;-35.664;-63.766;2023-02-15T15:20:56;28.70;34.10
59975;DHT22;62136;-35.664;-63.766;2023-02-15T15:23:40;28.70;34.20
59975;DHT22;62136;-35.664;-63.766;2023-02-15T15:31:59;28.80;34.20
59975;DHT22;62136;-35.664;-63.766;2023-02-15T15:37:21;28.90;34.10
59975;DHT22;62136;-35.664;-63.766;2023-02-15T15:48:35;29.10;34.10
59975;DHT22;62136;-35.664;-63.766;2023-02-15T15:51:10;29.10;34.00
59975;DHT22;62136;-35.664;-63.766;2023-02-15T15:53:46;29.10;34.00
59975;DHT22;62136;-35.664;-63.766;2023-02-15T15:56:20;29.20;34.10
59975;DHT22;62136;-35.664;-63.766;2023-02-15T15:59:03;29.20;34.10
59975;DHT22;62136;-35.664;-63.766;2023-02-15T16:01:37;29.30;34.20
59975;DHT22;62136;-35.664;-63.766;2023-02-15T16:04:10;29.30;34.00
59975;DHT22;62136;-35.664;-63.766;2023-02-15T16:06:39;29.30;33.90
59975;DHT22;62136;-35.664;-63.766;2023-02-15T16:09:18;29.40;34.00
59975;DHT22;62136;-35.664;-63.766;2023-02-15T16:11:53;29.40;34.00
59975;DHT22;62136;-35.664;-63.766;2023-02-15T16:14:40;29.30;34.00
59975;DHT22;62136;-35.664;-63.766;2023-02-15T16:17:14;29.40;33.90
59975;DHT22;62136;-35.664;-63.766;2023-02-15T16:19:44;29.40;34.00
59975;DHT22;62136;-35.664;-63.766;2023-02-15T16:22:23;29.40;34.10
59975;DHT22;62136;-35.664;-63.766;2023-02-15T16:27:43;29.50;34.30
59975;DHT22;62136;-35.664;-63.766;2023-02-15T16:32:55;29.50;34.30
59975;DHT22;62136;-35.664;-63.766;2023-02-15T16:35:22;29.50;34.40
59975;DHT22;62136;-35.664;-63.766;2023-02-15T16:37:50;29.50;34.30
59975;DHT22;62136;-35.664;-63.766;2023-02-15T16:40:46;29.60;34.40
59975;DHT22;62136;-35.664;-63.766;2023-02-15T16:43:21;29.60;34.40
59975;DHT22;62136;-35.664;-63.766;2023-02-15T16:45:50;29.60;34.40
59975;DHT22;62136;-35.664;-63.766;2023-02-15T16:48:21;29.60;34.40
59975;DHT22;62136;-35.664;-63.766;2023-02-15T16:50:53;29.60;34.40
59975;DHT22;62136;-35.664;-63.766;2023-02-15T16:53:26;29.70;34.40
59975;DHT22;62136;-35.664;-63.766;2023-02-15T16:56:04;29.70;34.40
59975;DHT22;62136;-35.664;-63.766;2023-02-15T16:58:41;29.70;34.30
59975;DHT22;62136;-35.664;-63.766;2023-02-15T17:01:11;29.80;34.50
59975;DHT22;62136;-35.664;-63.766;2023-02-15T17:03:40;29.80;34.40
59975;DHT22;62136;-35.664;-63.766;2023-02-15T17:06:27;29.80;34.40
59975;DHT22;62136;-35.664;-63.766;2023-02-15T17:09:12;29.80;34.40
59975;DHT22;62136;-35.664;-63.766;2023-02-15T17:11:42;29.80;34.40
59975;DHT22;62136;-35.664;-63.766;2023-02-15T17:14:11;29.80;34.40
59975;DHT22;62136;-35.664;-63.766;2023-02-15T17:16:53;29.80;34.30
59975;DHT22;62136;-35.664;-63.766;2023-02-15T17:19:24;29.90;34.50
59975;DHT22;62136;-35.664;-63.766;2023-02-15T17:21:58;29.90;34.40
59975;DHT22;62136;-35.664;-63.766;2023-02-15T17:29:41;30.00;34.40
59975;DHT22;62136;-35.664;-63.766;2023-02-15T17:32:21;30.00;34.40
59975;DHT22;62136;-35.664;-63.766;2023-02-15T17:39:56;30.00;34.30
59975;DHT22;62136;-35.664;-63.766;2023-02-15T17:42:23;30.00;34.30
59975;DHT22;62136;-35.664;-63.766;2023-02-15T17:44:50;30.10;34.40
59975;DHT22;62136;-35.664;-63.766;2023-02-15T17:47:22;30.10;34.90
59975;DHT22;62136;-35.664;-63.766;2023-02-15T17:49:51;30.10;34.40
59975;DHT22;62136;-35.664;-63.766;2023-02-15T17:52:19;30.10;34.40
59975;DHT22;62136;-35.664;-63.766;2023-02-15T17:54:46;30.20;34.50
59975;DHT22;62136;-35.664;-63.766;2023-02-15T17:57:33;30.20;34.50
59975;DHT22;62136;-35.664;-63.766;2023-02-15T18:00:00;30.20;34.40
59975;DHT22;62136;-35.664;-63.766;2023-02-15T18:02:46;30.20;34.30
59975;DHT22;62136;-35.664;-63.766;2023-02-15T18:05:31;30.30;34.40
59975;DHT22;62136;-35.664;-63.766;2023-02-15T18:08:19;30.30;34.30
59975;DHT22;62136;-35.664;-63.766;2023-02-15T18:11:05;30.30;34.30
59975;DHT22;62136;-35.664;-63.766;2023-02-15T18:13:50;30.30;34.30
59975;DHT22;62136;-35.664;-63.766;2023-02-15T18:16:24;30.30;34.30
59975;DHT22;62136;-35.664;-63.766;2023-02-15T18:18:52;30.30;34.40
59975;DHT22;62136;-35.664;-63.766;2023-02-15T18:21:19;30.30;34.40
59975;DHT22;62136;-35.664;-63.766;2023-02-15T18:23:46;30.40;34.40
59975;DHT22;62136;-35.664;-63.766;2023-02-15T18:26:20;30.40;34.40
59975;DHT22;62136;-35.664;-63.766;2023-02-15T18:28:47;30.40;34.30
59975;DHT22;62136;-35.664;-63.766;2023-02-15T18:31:15;30.40;34.30
59975;DHT22;62136;-35.664;-63.766;2023-02-15T18:33:47;30.40;34.40
59975;DHT22;62136;-35.664;-63.766;2023-02-15T18:38:50;30.50;34.50
59975;DHT22;62136;-35.664;-63.766;2023-02-15T18:41:20;30.50;34.50
59975;DHT22;62136;-35.664;-63.766;2023-02-15T18:43:48;30.50;34.50
59975;DHT22;62136;-35.664;-63.766;2023-02-15T18:46:16;30.50;34.40
59975;DHT22;62136;-35.664;-63.766;2023-02-15T18:48:44;30.60;34.40
59975;DHT22;62136;-35.664;-63.766;2023-02-15T18:51:22;30.60;34.40
59975;DHT22;62136;-35.664;-63.766;2023-02-15T18:53:51;30.60;34.40
59975;DHT22;62136;-35.664;-63.766;2023-02-15T18:56:20;30.60;34.40
59975;DHT22;62136;-35.664;-63.766;2023-02-15T18:58:48;30.60;34.30